Time;durP1;ratioP1;P1;durP2;ratioP2;P2;SDS_P1;SDS_P2;PMS_P1;PMS_P2;Temp;Humidity;BMP_temperature;BMP_pressure;BME280_temperature;BME280_humidity;BME280_pressure;Samples;Min_cycle;Max_cycle;Signal;HPM_P1;HPM_P2
2024/02/17 00:00:33;;;;;;;;;;;;;;;-128.00;-1.00;-1.00;106784;1253;1002390;-70
2024/02/17 00:03:01;;;;;;;;;;;;;;;-128.00;-1.00;-1.00;106850;1253;1002777;-70
2024/02/17 00:05:28;;;;;;;;;;;;;;;-128.00;-1.00;-1.00;106739;1254;1002374;-70
2024/02/17 00:07:56;;;;;;;;;;;;;;;-128.00;-1.00;-1.00;106860;1253;1002889;-70
2024/02/17 00:10:23;;;;;;;;;;;;;;;-128.00;-1.00;-1.00;106720;1256;1002326;-70
2024/02/17 00:12:51;;;;;;;;;;;;;;;-128.00;-1.00;-1.00;106831;1253;1002575;-70
2024/02/17 00:15:19;;;;;;;;;;;;;;;-128.00;-1.00;-1.00;106926;1252;1002312;-69
2024/02/17 00:17:46;;;;;;;;;;;;;;;-128.00;-1.00;-1.00;106824;1253;1002384;-70
2024/02/17 00:20:17;;;;;;;;;;;;;;;-128.00;-1.00;-1.00;106893;1253;1002328;-70
2024/02/17 00:22:45;;;;;;;;;;;;;;;-128.00;-1.00;-1.00;106867;1253;1013986;-70
2024/02/17 00:25:13;;;;;;;;;;;;;;;-128.00;-1.00;-1.00;106563;1254;1002408;-70
2024/02/17 00:27:40;;;;;;;;;;;;;;;-128.00;-1.00;-1.00;106723;1252;1002327;-70
2024/02/17 00:30:08;;;;;;;;;;;;;;;-128.00;-1.00;-1.00;106889;1252;1002914;-70
2024/02/17 00:32:36;;;;;;;;;;;;;;;-128.00;-1.00;-1.00;106888;1252;1011776;-70
2024/02/17 00:35:04;;;;;;;;;;;;;;;-128.00;-1.00;-1.00;106946;1252;1002507;-70
2024/02/17 00:37:32;;;;;;;;;;;;;;;-128.00;-1.00;-1.00;106867;1252;1012615;-70
2024/02/17 00:40:01;;;;;;;;;;;;;;;-128.00;-1.00;-1.00;106872;1253;1002709;-70
2024/02/17 00:42:29;;;;;;;;;;;;;;;-128.00;-1.00;-1.00;106885;1253;1010507;-70
2024/02/17 00:44:56;;;;;;;;;;;;;;;-128.00;-1.00;-1.00;106862;1252;1002843;-70
2024/02/17 00:47:24;;;;;;;;;;;;;;;-128.00;-1.00;-1.00;106935;1253;1002375;-70
2024/02/17 00:49:51;;;;;;;;;;;;;;;-128.00;-1.00;-1.00;106877;1253;1002403;-70
2024/02/17 00:52:19;;;;;;;;;;;;;;;-128.00;-1.00;-1.00;106597;1252;1002656;-70
2024/02/17 00:54:46;;;;;;;;;;;;;;;-128.00;-1.00;-1.00;106750;1254;1002562;-70
2024/02/17 00:57:14;;;;;;;;;;;;;;;-128.00;-1.00;-1.00;106644;1252;1002280;-70
2024/02/17 00:59:41;;;;;;;;;;;;;;;-128.00;-1.00;-1.00;106932;1253;1002365;-70
2024/02/17 01:02:09;;;;;;;;;;;;;;;-128.00;-1.00;-1.00;106645;1256;1002394;-70
2024/02/17 01:04:37;;;;;;;;;;;;;;;-128.00;-1.00;-1.00;106900;1253;1002288;-70
2024/02/17 01:07:04;;;;;;;;;;;;;;;-128.00;-1.00;-1.00;106826;1253;1001951;-70
2024/02/17 01:09:32;;;;;;;;;;;;;;;-128.00;-1.00;-1.00;106845;1253;1002310;-70
2024/02/17 01:12:00;;;;;;;;;;;;;;;-128.00;-1.00;-1.00;106942;1253;1001862;-69
2024/02/17 01:14:27;;;;;;;;;;;;;;;-128.00;-1.00;-1.00;106859;1253;1002662;-69
2024/02/17 01:16:55;;;;;;;;;;;;;;;-128.00;-1.00;-1.00;106901;1253;1002209;-70
2024/02/17 01:19:22;;;;;;;;;;;;;;;-128.00;-1.00;-1.00;106596;1252;1002948;-70
2024/02/17 01:21:50;;;;;;;;;;;;;;;-128.00;-1.00;-1.00;106925;1252;1002739;-70
2024/02/17 01:24:18;;;;;;;;;;;;;;;-128.00;-1.00;-1.00;106885;1253;1002136;-70
2024/02/17 01:26:45;;;;;;;;;;;;;;;-128.00;-1.00;-1.00;106860;1253;1002606;-70
2024/02/17 01:29:14;;;;;;;;;;;;;;;-128.00;-1.00;-1.00;106978;1253;1002377;-70
2024/02/17 01:31:42;;;;;;;;;;;;;;;-128.00;-1.00;-1.00;106755;1254;1009964;-70
2024/02/17 01:34:09;;;;;;;;;;;;;;;-128.00;-1.00;-1.00;106614;1254;1002221;-70
2024/02/17 01:36:37;;;;;;;;;;;;;;;-128.00;-1.00;-1.00;106504;1256;1002054;-70
2024/02/17 01:39:05;;;;;;;;;;;;;;;-128.00;-1.00;-1.00;106362;1262;1002367;-70
2024/02/17 01:41:32;;;;;;;;;;;;;;;-128.00;-1.00;-1.00;106389;1257;1002476;-69
2024/02/17 01:44:00;;;;;;;;;;;;;;;-128.00;-1.00;-1.00;106331;1260;1002460;-70
2024/02/17 01:46:28;;;;;;;;;;;;;;;-128.00;-1.00;-1.00;106200;1260;1010068;-69
2024/02/17 01:48:55;;;;;;;;;;;;;;;-128.00;-1.00;-1.00;106245;1261;1002195;-70
2024/02/17 01:51:23;;;;;;;;;;;;;;;-128.00;-1.00;-1.00;106232;1262;1002344;-70
2024/02/17 01:53:51;;;;;;;;;;;;;;;-128.00;-1.00;-1.00;106276;1261;1001924;-69
2024/02/17 01:56:20;;;;;;;;;;;;;;;-128.00;-1.00;-1.00;106201;1262;1002259;-69
2024/02/17 01:58:48;;;;;;;;;;;;;;;-128.00;-1.00;-1.00;106175;1261;1010656;-70
2024/02/17 02:01:16;;;;;;;;;;;;;;;-128.00;-1.00;-1.00;106244;1261;1002956;-70
2024/02/17 02:03:43;;;;;;;;;;;;;;;-128.00;-1.00;-1.00;106249;1258;1002582;-70
2024/02/17 02:06:12;;;;;;;;;;;;;;;-128.00;-1.00;-1.00;106395;1258;1002508;-70
2024/02/17 02:08:40;;;;;;;;;;;;;;;-128.00;-1.00;-1.00;106322;1259;1009834;-69
2024/02/17 02:11:07;;;;;;;;;;;;;;;-128.00;-1.00;-1.00;106290;1259;1002531;-69
2024/02/17 02:13:35;;;;;;;;;;;;;;;-128.00;-1.00;-1.00;106385;1259;1002124;-70
2024/02/17 02:16:03;;;;;;;;;;;;;;;-128.00;-1.00;-1.00;106481;1256;1002762;-69
2024/02/17 02:18:30;;;;;;;;;;;;;;;-128.00;-1.00;-1.00;106537;1256;1002018;-69
2024/02/17 02:20:58;;;;;;;;;;;;;;;-128.00;-1.00;-1.00;106634;1255;1002406;-70
2024/02/17 02:23:25;;;;;;;;;;;;;;;-128.00;-1.00;-1.00;106522;1257;1002888;-69
2024/02/17 02:25:56;;;;;;;;;;;;;;;-128.00;-1.00;-1.00;106407;1259;1001903;-69
2024/02/17 02:28:24;;;;;;;;;;;;;;;-128.00;-1.00;-1.00;106287;1259;1013156;-69
2024/02/17 02:30:52;;;;;;;;;;;;;;;-128.00;-1.00;-1.00;106306;1259;1002594;-70
2024/02/17 02:33:19;;;;;;;;;;;;;;;-128.00;-1.00;-1.00;106273;1259;1010680;-69
2024/02/17 02:35:47;;;;;;;;;;;;;;;-128.00;-1.00;-1.00;106251;1259;1002802;-69
2024/02/17 02:38:15;;;;;;;;;;;;;;;-128.00;-1.00;-1.00;106354;1259;1002343;-69
2024/02/17 02:40:42;;;;;;;;;;;;;;;-128.00;-1.00;-1.00;106390;1256;1002611;-69
2024/02/17 02:43:13;;;;;;;;;;;;;;;-128.00;-1.00;-1.00;106591;1255;1013295;-69
2024/02/17 02:45:40;;;;;;;;;;;;;;;-128.00;-1.00;-1.00;106537;1255;1002468;-69
2024/02/17 02:48:08;;;;;;;;;;;;;;;-128.00;-1.00;-1.00;106437;1258;1002523;-69
2024/02/17 02:50:36;;;;;;;;;;;;;;;-128.00;-1.00;-1.00;106293;1263;1002226;-70
2024/02/17 02:53:03;;;;;;;;;;;;;;;-128.00;-1.00;-1.00;106264;1259;1003075;-69
2024/02/17 02:55:31;;;;;;;;;;;;;;;-128.00;-1.00;-1.00;106159;1259;1002782;-69
2024/02/17 02:57:58;;;;;;;;;;;;;;;-128.00;-1.00;-1.00;106412;1256;1002390;-70
2024/02/17 03:00:26;;;;;;;;;;;;;;;-128.00;-1.00;-1.00;106535;1260;1002712;-69
2024/02/17 03:02:53;;;;;;;;;;;;;;;-128.00;-1.00;-1.00;106345;1256;1002299;-69
2024/02/17 03:05:21;;;;;;;;;;;;;;;-128.00;-1.00;-1.00;106454;1256;1003235;-69
2024/02/17 03:07:49;;;;;;;;;;;;;;;-128.00;-1.00;-1.00;106570;1256;1002314;-69
2024/02/17 03:10:17;;;;;;;;;;;;;;;-128.00;-1.00;-1.00;106376;1259;1002714;-69
2024/02/17 03:12:45;;;;;;;;;;;;;;;-128.00;-1.00;-1.00;106335;1259;1002214;-69
2024/02/17 03:15:12;;;;;;;;;;;;;;;-128.00;-1.00;-1.00;106346;1259;1002882;-69
2024/02/17 03:17:40;;;;;;;;;;;;;;;-128.00;-1.00;-1.00;106324;1259;1002568;-70
2024/02/17 03:20:08;;;;;;;;;;;;;;;-128.00;-1.00;-1.00;106506;1255;1003630;-69
2024/02/17 03:22:35;;;;;;;;;;;;;;;-128.00;-1.00;-1.00;106477;1257;1002192;-70
2024/02/17 03:25:03;;;;;;;;;;;;;;;-128.00;-1.00;-1.00;106415;1256;1002336;-69
2024/02/17 03:27:31;;;;;;;;;;;;;;;-128.00;-1.00;-1.00;106572;1255;1002524;-69
2024/02/17 03:29:59;;;;;;;;;;;;;;;-128.00;-1.00;-1.00;106394;1262;1002446;-69
2024/02/17 03:32:27;;;;;;;;;;;;;;;-128.00;-1.00;-1.00;106404;1255;1002428;-69
2024/02/17 03:34:55;;;;;;;;;;;;;;;-128.00;-1.00;-1.00;106466;1257;1010463;-70
2024/02/17 03:37:22;;;;;;;;;;;;;;;-128.00;-1.00;-1.00;106268;1256;1002200;-69
2024/02/17 03:39:50;;;;;;;;;;;;;;;-128.00;-1.00;-1.00;106554;1256;1002170;-70
2024/02/17 03:42:17;;;;;;;;;;;;;;;-128.00;-1.00;-1.00;106693;1258;1002852;-69
2024/02/17 03:44:45;;;;;;;;;;;;;;;-128.00;-1.00;-1.00;106570;1253;1002620;-69
2024/02/17 03:47:13;;;;;;;;;;;;;;;-128.00;-1.00;-1.00;106818;1253;1002317;-69
2024/02/17 03:49:40;;;;;;;;;;;;;;;-128.00;-1.00;-1.00;106788;1253;1002505;-70
2024/02/17 03:52:08;;;;;;;;;;;;;;;-128.00;-1.00;-1.00;106849;1253;1002043;-69
2024/02/17 03:54:35;;;;;;;;;;;;;;;-128.00;-1.00;-1.00;106769;1258;1002486;-69
2024/02/17 03:57:04;;;;;;;;;;;;;;;-128.00;-1.00;-1.00;106720;1254;1002433;-69
2024/02/17 03:59:31;;;;;;;;;;;;;;;-128.00;-1.00;-1.00;106533;1253;1011131;-70
2024/02/17 04:01:59;;;;;;;;;;;;;;;-128.00;-1.00;-1.00;106662;1256;1002580;-69
2024/02/17 04:04:27;;;;;;;;;;;;;;;-128.00;-1.00;-1.00;106568;1257;1002805;-70
2024/02/17 04:06:55;;;;;;;;;;;;;;;-128.00;-1.00;-1.00;106523;1261;1011890;-69
2024/02/17 04:09:23;;;;;;;;;;;;;;;-128.00;-1.00;-1.00;106640;1256;1002799;-69
2024/02/17 04:11:51;;;;;;;;;;;;;;;-128.00;-1.00;-1.00;106502;1256;1002381;-70
2024/02/17 04:14:19;;;;;;;;;;;;;;;-128.00;-1.00;-1.00;106587;1256;1010571;-69
2024/02/17 04:16:46;;;;;;;;;;;;;;;-128.00;-1.00;-1.00;106670;1257;1001707;-69
2024/02/17 04:19:14;;;;;;;;;;;;;;;-128.00;-1.00;-1.00;106610;1254;1002290;-69
2024/02/17 04:21:43;;;;;;;;;;;;;;;-128.00;-1.00;-1.00;106613;1254;1002163;-69
2024/02/17 04:24:11;;;;;;;;;;;;;;;-128.00;-1.00;-1.00;106601;1254;1009812;-69
2024/02/17 04:26:39;;;;;;;;;;;;;;;-128.00;-1.00;-1.00;106537;1254;1002385;-69
2024/02/17 04:29:06;;;;;;;;;;;;;;;-128.00;-1.00;-1.00;106494;1254;1002258;-69
2024/02/17 04:31:34;;;;;;;;;;;;;;;-128.00;-1.00;-1.00;106553;1257;1002311;-69
2024/02/17 04:34:01;;;;;;;;;;;;;;;-128.00;-1.00;-1.00;106472;1254;1002195;-69
2024/02/17 04:36:29;;;;;;;;;;;;;;;-128.00;-1.00;-1.00;106691;1254;1003476;-69
2024/02/17 04:38:57;;;;;;;;;;;;;;;-128.00;-1.00;-1.00;106538;1255;1002529;-69
2024/02/17 04:41:24;;;;;;;;;;;;;;;-128.00;-1.00;-1.00;106698;1255;1002031;-69
2024/02/17 04:43:52;;;;;;;;;;;;;;;-128.00;-1.00;-1.00;106609;1254;1001889;-69
2024/02/17 04:46:19;;;;;;;;;;;;;;;-128.00;-1.00;-1.00;106747;1254;1002277;-69
2024/02/17 04:48:47;;;;;;;;;;;;;;;-128.00;-1.00;-1.00;106540;1255;1002199;-69
2024/02/17 04:51:14;;;;;;;;;;;;;;;-128.00;-1.00;-1.00;106652;1254;1002811;-69
2024/02/17 04:53:42;;;;;;;;;;;;;;;-128.00;-1.00;-1.00;106710;1254;1002406;-70
2024/02/17 04:56:09;;;;;;;;;;;;;;;-128.00;-1.00;-1.00;106744;1253;1002258;-67
2024/02/17 04:58:37;;;;;;;;;;;;;;;-128.00;-1.00;-1.00;106726;1253;1002575;-68
2024/02/17 05:01:05;;;;;;;;;;;;;;;-128.00;-1.00;-1.00;106758;1253;1002796;-68
2024/02/17 05:03:32;;;;;;;;;;;;;;;-128.00;-1.00;-1.00;106778;1254;1002301;-68
2024/02/17 05:06:00;;;;;;;;;;;;;;;-128.00;-1.00;-1.00;106785;1253;1002512;-68
2024/02/17 05:08:28;;;;;;;;;;;;;;;-128.00;-1.00;-1.00;106536;1259;1002149;-68
2024/02/17 05:10:55;;;;;;;;;;;;;;;-128.00;-1.00;-1.00;106817;1253;1002511;-68
2024/02/17 05:13:23;;;;;;;;;;;;;;;-128.00;-1.00;-1.00;106798;1253;1002916;-68
2024/02/17 05:15:50;;;;;;;;;;;;;;;-128.00;-1.00;-1.00;106811;1254;1002406;-68
2024/02/17 05:18:18;;;;;;;;;;;;;;;-128.00;-1.00;-1.00;106632;1253;1002360;-68
2024/02/17 05:20:46;;;;;;;;;;;;;;;-128.00;-1.00;-1.00;106722;1254;1002395;-68
2024/02/17 05:23:13;;;;;;;;;;;;;;;-128.00;-1.00;-1.00;106949;1254;1002584;-68
2024/02/17 05:25:41;;;;;;;;;;;;;;;-128.00;-1.00;-1.00;106920;1254;1002917;-69
2024/02/17 05:28:08;;;;;;;;;;;;;;;-128.00;-1.00;-1.00;106966;1253;1002456;-69
2024/02/17 05:30:36;;;;;;;;;;;;;;;-128.00;-1.00;-1.00;106923;1253;1002766;-68
2024/02/17 05:33:03;;;;;;;;;;;;;;;-128.00;-1.00;-1.00;106883;1253;1004205;-68
2024/02/17 05:35:31;;;;;;;;;;;;;;;-128.00;-1.00;-1.00;106963;1252;1002363;-68
2024/02/17 05:37:59;;;;;;;;;;;;;;;-128.00;-1.00;-1.00;106861;1253;1002214;-69
2024/02/17 05:40:26;;;;;;;;;;;;;;;-128.00;-1.00;-1.00;106677;1253;1003923;-69
2024/02/17 05:42:54;;;;;;;;;;;;;;;-128.00;-1.00;-1.00;106604;1257;1001941;-69
2024/02/17 05:45:21;;;;;;;;;;;;;;;-128.00;-1.00;-1.00;106926;1254;1002471;-69
2024/02/17 05:47:49;;;;;;;;;;;;;;;-128.00;-1.00;-1.00;106713;1254;1002317;-70
2024/02/17 05:50:16;;;;;;;;;;;;;;;-128.00;-1.00;-1.00;106677;1253;1002390;-69
2024/02/17 05:52:48;;;;;;;;;;;;;;;-128.00;-1.00;-1.00;106885;1254;1002564;-69
2024/02/17 05:55:16;;;;;;;;;;;;;;;-128.00;-1.00;-1.00;106651;1259;1014682;-69
2024/02/17 05:57:43;;;;;;;;;;;;;;;-128.00;-1.00;-1.00;106509;1257;1002851;-69
2024/02/17 06:00:11;;;;;;;;;;;;;;;-128.00;-1.00;-1.00;106579;1254;1002645;-71
2024/02/17 06:02:39;;;;;;;;;;;;;;;-128.00;-1.00;-1.00;106658;1254;1002553;-70
2024/02/17 06:05:07;;;;;;;;;;;;;;;-128.00;-1.00;-1.00;106624;1254;1002097;-70
2024/02/17 06:07:35;;;;;;;;;;;;;;;-128.00;-1.00;-1.00;106309;1254;1012708;-70
2024/02/17 06:10:04;;;;;;;;;;;;;;;-128.00;-1.00;-1.00;106587;1254;1012919;-70
2024/02/17 06:12:32;;;;;;;;;;;;;;;-128.00;-1.00;-1.00;106607;1255;1013176;-70
2024/02/17 06:15:00;;;;;;;;;;;;;;;-128.00;-1.00;-1.00;106568;1254;1010561;-71
2024/02/17 06:17:28;;;;;;;;;;;;;;;-128.00;-1.00;-1.00;106623;1254;1002275;-69
2024/02/17 06:22:42;;;;;;;;;;;;;;;-128.00;-1.00;-1.00;106556;1255;1012821;-70
2024/02/17 06:25:09;;;;;;;;;;;;;;;-128.00;-1.00;-1.00;106433;1254;1002622;-70
2024/02/17 06:27:37;;;;;;;;;;;;;;;-128.00;-1.00;-1.00;106603;1254;1001630;-70
2024/02/17 06:30:04;;;;;;;;;;;;;;;-128.00;-1.00;-1.00;106530;1254;1002641;-70
2024/02/17 06:32:32;;;;;;;;;;;;;;;-128.00;-1.00;-1.00;106684;1258;1002576;-70
2024/02/17 06:34:59;;;;;;;;;;;;;;;-128.00;-1.00;-1.00;106881;1254;1002403;-70
2024/02/17 06:37:27;;;;;;;;;;;;;;;-128.00;-1.00;-1.00;106918;1253;1002255;-70
2024/02/17 06:39:55;;;;;;;;;;;;;;;-128.00;-1.00;-1.00;106879;1253;1002756;-70
2024/02/17 06:42:22;;;;;;;;;;;;;;;-128.00;-1.00;-1.00;106955;1253;1003069;-70
2024/02/17 06:44:50;;;;;;;;;;;;;;;-128.00;-1.00;-1.00;106827;1254;1002527;-70
2024/02/17 06:47:19;;;;;;;;;;;;;;;-128.00;-1.00;-1.00;106708;1254;1002474;-70
2024/02/17 06:49:47;;;;;;;;;;;;;;;-128.00;-1.00;-1.00;106462;1254;1012625;-70
2024/02/17 06:52:14;;;;;;;;;;;;;;;-128.00;-1.00;-1.00;106489;1254;1002656;-70
2024/02/17 06:54:42;;;;;;;;;;;;;;;-128.00;-1.00;-1.00;106498;1257;1002782;-70
2024/02/17 06:57:09;;;;;;;;;;;;;;;-128.00;-1.00;-1.00;106616;1257;1002609;-70
2024/02/17 06:59:37;;;;;;;;;;;;;;;-128.00;-1.00;-1.00;106569;1255;1003059;-71
2024/02/17 07:02:05;;;;;;;;;;;;;;;-128.00;-1.00;-1.00;106529;1259;1002477;-71
2024/02/17 07:04:32;;;;;;;;;;;;;;;-128.00;-1.00;-1.00;106479;1256;1002595;-71
2024/02/17 07:07:00;;;;;;;;;;;;;;;-128.00;-1.00;-1.00;106439;1258;1002501;-71
2024/02/17 07:09:29;;;;;;;;;;;;;;;-128.00;-1.00;-1.00;106445;1262;1002317;-71
2024/02/17 07:11:57;;;;;;;;;;;;;;;-128.00;-1.00;-1.00;106334;1258;1012937;-71
2024/02/17 07:14:25;;;;;;;;;;;;;;;-128.00;-1.00;-1.00;106453;1258;1002592;-70
2024/02/17 07:16:54;;;;;;;;;;;;;;;-128.00;-1.00;-1.00;106488;1254;1002360;-71
2024/02/17 07:19:21;;;;;;;;;;;;;;;-128.00;-1.00;-1.00;106598;1254;1010975;-71
2024/02/17 07:21:49;;;;;;;;;;;;;;;-128.00;-1.00;-1.00;106619;1254;1002735;-71
2024/02/17 07:24:17;;;;;;;;;;;;;;;-128.00;-1.00;-1.00;106549;1254;1002299;-71
2024/02/17 07:26:44;;;;;;;;;;;;;;;-128.00;-1.00;-1.00;106654;1254;1002611;-71
2024/02/17 07:29:12;;;;;;;;;;;;;;;-128.00;-1.00;-1.00;106594;1254;1004418;-71
2024/02/17 07:31:42;;;;;;;;;;;;;;;-128.00;-1.00;-1.00;106513;1254;1002516;-71
2024/02/17 07:34:11;;;;;;;;;;;;;;;-128.00;-1.00;-1.00;106774;1254;1012392;-70
2024/02/17 07:36:39;;;;;;;;;;;;;;;-128.00;-1.00;-1.00;106685;1254;1013293;-70
2024/02/17 07:39:08;;;;;;;;;;;;;;;-128.00;-1.00;-1.00;106919;1255;1012629;-70
2024/02/17 07:41:35;;;;;;;;;;;;;;;-128.00;-1.00;-1.00;106858;1253;1010836;-70
2024/02/17 07:44:07;;;;;;;;;;;;;;;-128.00;-1.00;-1.00;106867;1253;1002742;-70
2024/02/17 07:46:35;;;;;;;;;;;;;;;-128.00;-1.00;-1.00;106923;1254;1013192;-70
2024/02/17 07:49:03;;;;;;;;;;;;;;;-128.00;-1.00;-1.00;106834;1254;1012562;-70
2024/02/17 07:51:31;;;;;;;;;;;;;;;-128.00;-1.00;-1.00;106889;1253;1001857;-69
2024/02/17 07:53:58;;;;;;;;;;;;;;;-128.00;-1.00;-1.00;106700;1253;1009588;-70
2024/02/17 07:56:28;;;;;;;;;;;;;;;-128.00;-1.00;-1.00;106970;1253;1010641;-71
2024/02/17 07:58:56;;;;;;;;;;;;;;;-128.00;-1.00;-1.00;106947;1254;1002790;-71
2024/02/17 08:01:23;;;;;;;;;;;;;;;-128.00;-1.00;-1.00;106923;1254;1001809;-71
2024/02/17 08:03:51;;;;;;;;;;;;;;;-128.00;-1.00;-1.00;106900;1254;1002978;-72
2024/02/17 08:06:19;;;;;;;;;;;;;;;-128.00;-1.00;-1.00;106878;1253;1003022;-71
2024/02/17 08:08:47;;;;;;;;;;;;;;;-128.00;-1.00;-1.00;106542;1253;1010332;-71
2024/02/17 08:11:15;;;;;;;;;;;;;;;-128.00;-1.00;-1.00;106895;1254;1002217;-69
2024/02/17 08:13:43;;;;;;;;;;;;;;;-128.00;-1.00;-1.00;106869;1254;1002246;-70
2024/02/17 08:16:11;;;;;;;;;;;;;;;-128.00;-1.00;-1.00;106907;1254;1002534;-71
2024/02/17 08:18:42;;;;;;;;;;;;;;;-128.00;-1.00;-1.00;106922;1254;1010145;-70
2024/02/17 08:21:10;;;;;;;;;;;;;;;-128.00;-1.00;-1.00;106891;1254;1011598;-70
2024/02/17 08:23:40;;;;;;;;;;;;;;;-128.00;-1.00;-1.00;106668;1257;1013515;-70
2024/02/17 08:26:11;;;;;;;;;;;;;;;-128.00;-1.00;-1.00;106843;1254;1012659;-71
2024/02/17 08:28:38;;;;;;;;;;;;;;;-128.00;-1.00;-1.00;106929;1254;1012743;-71
2024/02/17 08:31:06;;;;;;;;;;;;;;;-128.00;-1.00;-1.00;106552;1253;1002589;-71
2024/02/17 08:33:33;;;;;;;;;;;;;;;-128.00;-1.00;-1.00;106616;1252;1002408;-70
2024/02/17 08:36:01;;;;;;;;;;;;;;;-128.00;-1.00;-1.00;106869;1254;1002622;-71
2024/02/17 08:38:28;;;;;;;;;;;;;;;-128.00;-1.00;-1.00;106874;1253;1002598;-70
2024/02/17 08:40:56;;;;;;;;;;;;;;;-128.00;-1.00;-1.00;106838;1254;1002812;-69
2024/02/17 08:43:24;;;;;;;;;;;;;;;-128.00;-1.00;-1.00;106842;1254;1002294;-70
2024/02/17 08:45:52;;;;;;;;;;;;;;;-128.00;-1.00;-1.00;106725;1254;1002296;-70
2024/02/17 08:48:20;;;;;;;;;;;;;;;-128.00;-1.00;-1.00;106771;1254;1012770;-71
2024/02/17 08:50:48;;;;;;;;;;;;;;;-128.00;-1.00;-1.00;106805;1253;1012563;-71
2024/02/17 08:53:15;;;;;;;;;;;;;;;-128.00;-1.00;-1.00;106831;1253;1002524;-71
2024/02/17 08:55:43;;;;;;;;;;;;;;;-128.00;-1.00;-1.00;106795;1253;1002735;-71
2024/02/17 08:58:10;;;;;;;;;;;;;;;-128.00;-1.00;-1.00;106867;1253;1002540;-70
2024/02/17 09:00:38;;;;;;;;;;;;;;;-128.00;-1.00;-1.00;106855;1254;1002981;-70
2024/02/17 09:03:06;;;;;;;;;;;;;;;-128.00;-1.00;-1.00;106526;1257;1002342;-70
2024/02/17 09:05:35;;;;;;;;;;;;;;;-128.00;-1.00;-1.00;106901;1254;1001942;-70
2024/02/17 09:08:03;;;;;;;;;;;;;;;-128.00;-1.00;-1.00;106712;1253;1010346;-70
2024/02/17 09:10:30;;;;;;;;;;;;;;;-128.00;-1.00;-1.00;106788;1254;1002369;-70
2024/02/17 09:12:58;;;;;;;;;;;;;;;-128.00;-1.00;-1.00;106895;1254;1002328;-70
2024/02/17 09:15:25;;;;;;;;;;;;;;;-128.00;-1.00;-1.00;106925;1253;1002310;-70
2024/02/17 09:17:53;;;;;;;;;;;;;;;-128.00;-1.00;-1.00;106780;1253;1002363;-70
2024/02/17 09:20:21;;;;;;;;;;;;;;;-128.00;-1.00;-1.00;106860;1254;1002726;-70
2024/02/17 09:22:48;;;;;;;;;;;;;;;-128.00;-1.00;-1.00;106897;1253;1002514;-71
2024/02/17 09:25:17;;;;;;;;;;;;;;;-128.00;-1.00;-1.00;106869;1254;1002661;-71
2024/02/17 09:27:46;;;;;;;;;;;;;;;-128.00;-1.00;-1.00;106720;1261;1012210;-71
2024/02/17 09:30:14;;;;;;;;;;;;;;;-128.00;-1.00;-1.00;106912;1253;1012519;-70
2024/02/17 09:32:41;;;;;;;;;;;;;;;-128.00;-1.00;-1.00;106814;1253;1002466;-69
2024/02/17 09:35:09;;;;;;;;;;;;;;;-128.00;-1.00;-1.00;106875;1253;1001812;-70
2024/02/17 09:37:43;;;;;;;;;;;;;;;-128.00;-1.00;-1.00;106749;1253;1002472;-70
2024/02/17 09:40:14;;;;;;;;;;;;;;;-128.00;-1.00;-1.00;106705;1253;1012445;-70
2024/02/17 09:42:42;;;;;;;;;;;;;;;-128.00;-1.00;-1.00;106894;1253;1013459;-70
2024/02/17 09:45:10;;;;;;;;;;;;;;;-128.00;-1.00;-1.00;106627;1254;1010544;-71
2024/02/17 09:47:38;;;;;;;;;;;;;;;-128.00;-1.00;-1.00;106762;1254;1002601;-70
2024/02/17 09:50:05;;;;;;;;;;;;;;;-128.00;-1.00;-1.00;106727;1254;1002268;-70
2024/02/17 09:52:34;;;;;;;;;;;;;;;-128.00;-1.00;-1.00;106404;1264;1002210;-70
2024/02/17 09:55:01;;;;;;;;;;;;;;;-128.00;-1.00;-1.00;106729;1254;1002319;-70
2024/02/17 09:57:29;;;;;;;;;;;;;;;-128.00;-1.00;-1.00;106550;1253;1002552;-70
2024/02/17 10:00:13;;;;;;;;;;;;;;;-128.00;-1.00;-1.00;106903;1252;1010744;-70
2024/02/17 10:02:41;;;;;;;;;;;;;;;-128.00;-1.00;-1.00;106610;1254;1012764;-71
2024/02/17 10:05:09;;;;;;;;;;;;;;;-128.00;-1.00;-1.00;106712;1254;1002349;-71
2024/02/17 10:07:46;;;;;;;;;;;;;;;-128.00;-1.00;-1.00;106561;1253;1002950;-71
2024/02/17 10:10:14;;;;;;;;;;;;;;;-128.00;-1.00;-1.00;106861;1253;1010342;-71
2024/02/17 10:12:48;;;;;;;;;;;;;;;-128.00;-1.00;-1.00;106890;1253;1002223;-71
2024/02/17 10:15:16;;;;;;;;;;;;;;;-128.00;-1.00;-1.00;106864;1253;1014407;-71
2024/02/17 10:17:44;;;;;;;;;;;;;;;-128.00;-1.00;-1.00;106831;1253;1012495;-70
2024/02/17 10:20:12;;;;;;;;;;;;;;;-128.00;-1.00;-1.00;106608;1253;1002311;-71
2024/02/17 10:22:43;;;;;;;;;;;;;;;-128.00;-1.00;-1.00;106913;1253;1002849;-70
2024/02/17 10:25:10;;;;;;;;;;;;;;;-128.00;-1.00;-1.00;106859;1253;1010596;-70
2024/02/17 10:27:39;;;;;;;;;;;;;;;-128.00;-1.00;-1.00;106653;1254;1002208;-70
2024/02/17 10:30:07;;;;;;;;;;;;;;;-128.00;-1.00;-1.00;106790;1257;1012802;-69
2024/02/17 10:32:34;;;;;;;;;;;;;;;-128.00;-1.00;-1.00;106851;1253;1013167;-69
2024/02/17 10:35:03;;;;;;;;;;;;;;;-128.00;-1.00;-1.00;106860;1253;1002420;-70
2024/02/17 10:37:31;;;;;;;;;;;;;;;-128.00;-1.00;-1.00;106870;1253;1011078;-70
2024/02/17 10:39:59;;;;;;;;;;;;;;;-128.00;-1.00;-1.00;106864;1253;1002522;-70
2024/02/17 10:42:27;;;;;;;;;;;;;;;-128.00;-1.00;-1.00;106856;1253;1012756;-71
2024/02/17 10:44:55;;;;;;;;;;;;;;;-128.00;-1.00;-1.00;106868;1253;1002917;-70
2024/02/17 10:47:24;;;;;;;;;;;;;;;-128.00;-1.00;-1.00;106488;1253;1009678;-71
2024/02/17 10:49:54;;;;;;;;;;;;;;;-128.00;-1.00;-1.00;106847;1252;1010798;-71
2024/02/17 10:52:22;;;;;;;;;;;;;;;-128.00;-1.00;-1.00;106712;1254;1013079;-70
2024/02/17 10:54:54;;;;;;;;;;;;;;;-128.00;-1.00;-1.00;106459;1254;1002458;-70
2024/02/17 10:57:22;;;;;;;;;;;;;;;-128.00;-1.00;-1.00;106554;1254;1013258;-70
2024/02/17 10:59:54;;;;;;;;;;;;;;;-128.00;-1.00;-1.00;106671;1254;1002251;-70
2024/02/17 11:02:23;;;;;;;;;;;;;;;-128.00;-1.00;-1.00;106590;1254;1011392;-70
2024/02/17 11:04:50;;;;;;;;;;;;;;;-128.00;-1.00;-1.00;106605;1254;1012326;-70
2024/02/17 11:07:18;;;;;;;;;;;;;;;-128.00;-1.00;-1.00;106705;1254;1002362;-70
2024/02/17 11:09:46;;;;;;;;;;;;;;;-128.00;-1.00;-1.00;106590;1254;1002409;-71
2024/02/17 11:12:28;;;;;;;;;;;;;;;-128.00;-1.00;-1.00;106538;1254;1002628;-70
2024/02/17 11:15:13;;;;;;;;;;;;;;;-128.00;-1.00;-1.00;106611;1254;1010891;-70
2024/02/17 11:17:42;;;;;;;;;;;;;;;-128.00;-1.00;-1.00;106612;1254;1012551;-70
2024/02/17 11:20:11;;;;;;;;;;;;;;;-128.00;-1.00;-1.00;106574;1254;1012733;-70
2024/02/17 11:22:41;;;;;;;;;;;;;;;-128.00;-1.00;-1.00;106529;1254;1012908;-70
2024/02/17 11:25:09;;;;;;;;;;;;;;;-128.00;-1.00;-1.00;106851;1253;1011086;-71
2024/02/17 11:27:41;;;;;;;;;;;;;;;-128.00;-1.00;-1.00;106824;1253;1010329;-70
2024/02/17 11:30:09;;;;;;;;;;;;;;;-128.00;-1.00;-1.00;106799;1254;1012786;-70
2024/02/17 11:32:38;;;;;;;;;;;;;;;-128.00;-1.00;-1.00;106518;1257;1002514;-70
2024/02/17 11:35:08;;;;;;;;;;;;;;;-128.00;-1.00;-1.00;106855;1253;1013783;-70
2024/02/17 11:37:36;;;;;;;;;;;;;;;-128.00;-1.00;-1.00;106605;1254;1010458;-71
2024/02/17 11:40:04;;;;;;;;;;;;;;;-128.00;-1.00;-1.00;106849;1252;1002615;-70
2024/02/17 11:42:32;;;;;;;;;;;;;;;-128.00;-1.00;-1.00;106848;1252;1002721;-70
2024/02/17 11:44:59;;;;;;;;;;;;;;;-128.00;-1.00;-1.00;106798;1253;1002458;-71
2024/02/17 11:47:29;;;;;;;;;;;;;;;-128.00;-1.00;-1.00;106829;1252;1002276;-70
2024/02/17 11:50:08;;;;;;;;;;;;;;;-128.00;-1.00;-1.00;106848;1252;1010856;-71
2024/02/17 11:52:37;;;;;;;;;;;;;;;-128.00;-1.00;-1.00;106843;1253;1010842;-71
2024/02/17 11:55:05;;;;;;;;;;;;;;;-128.00;-1.00;-1.00;106867;1253;1013076;-71
2024/02/17 11:57:33;;;;;;;;;;;;;;;-128.00;-1.00;-1.00;106921;1253;1002088;-70
2024/02/17 12:00:00;;;;;;;;;;;;;;;-128.00;-1.00;-1.00;106767;1254;1003142;-70
2024/02/17 12:02:36;;;;;;;;;;;;;;;-128.00;-1.00;-1.00;106789;1253;1010046;-71
2024/02/17 12:05:03;;;;;;;;;;;;;;;-128.00;-1.00;-1.00;106818;1252;1002467;-71
2024/02/17 12:07:31;;;;;;;;;;;;;;;-128.00;-1.00;-1.00;106878;1252;1002302;-70
2024/02/17 12:09:59;;;;;;;;;;;;;;;-128.00;-1.00;-1.00;106534;1257;1002937;-69
2024/02/17 12:12:26;;;;;;;;;;;;;;;-128.00;-1.00;-1.00;106837;1253;1002350;-70
2024/02/17 12:14:54;;;;;;;;;;;;;;;-128.00;-1.00;-1.00;106850;1252;1002388;-70
2024/02/17 12:17:21;;;;;;;;;;;;;;;-128.00;-1.00;-1.00;106743;1254;1002243;-70
2024/02/17 12:19:49;;;;;;;;;;;;;;;-128.00;-1.00;-1.00;106511;1256;1002265;-71
2024/02/17 12:22:17;;;;;;;;;;;;;;;-128.00;-1.00;-1.00;106471;1256;1002807;-70
2024/02/17 12:24:44;;;;;;;;;;;;;;;-128.00;-1.00;-1.00;106480;1256;1003413;-71
2024/02/17 12:27:11;;;;;;;;;;;;;;;-128.00;-1.00;-1.00;106512;1256;1002410;-70
2024/02/17 12:29:47;;;;;;;;;;;;;;;-128.00;-1.00;-1.00;106455;1256;1002514;-71
2024/02/17 12:32:18;;;;;;;;;;;;;;;-128.00;-1.00;-1.00;106476;1256;1013121;-70
2024/02/17 12:34:46;;;;;;;;;;;;;;;-128.00;-1.00;-1.00;106467;1256;1012084;-70